EWG545 LEIB-EDDK
Flight info
| Callsign | EWG545 |
|---|---|
| Flight time | N/A |
| Altitude | 36000 |
| Route | KABRE DCT ELTAN DCT MHN DCT MEROS DCT LAPIT DCT CHELY DCT LUMAS DCT MAXIR DCT LUSOL DCT BODRU DCT OKTET DCT IRMAR DCT KINES DCT VANAS DCT MOBLO DCT UBIMA DCT GILIR DCT PENDU DCT IXILU DCT GIVOR DCT SORAL DCT IBERA N853 ARCKY T853 IBESA T860 ERUKI |
| Aircraft | A320/M-SDE2E3FGIJ1RWXY/L |
Departure
| Time | 2026-05-01 14:11 |
|---|---|
| Airport | Ibiza Airport (LEIB) |
Arrival
| Time | N/A |
|---|---|
| Airport | Cologne Bonn Airport (EDDK) |
| Time | Latitude | Longitude | Altitude | Speed | Heading |
|---|---|---|---|---|---|
| 2026-05-01 13:38 | 38.87700 | 1.37264 | 9 ft | 0 kts | 331° |
| 2026-05-01 14:00 | 38.87680 | 1.37280 | 8 ft | 4 kts | 321° |
| 2026-05-01 14:00 | 38.87661 | 1.37304 | 10 ft | 4 kts | 296° |
| 2026-05-01 14:01 | 38.87657 | 1.37332 | 11 ft | 2 kts | 242° |
| 2026-05-01 14:01 | 38.87660 | 1.37339 | 8 ft | 0 kts | 241° |
| 2026-05-01 14:04 | 38.87656 | 1.37329 | 10 ft | 4 kts | 241° |
| 2026-05-01 14:04 | 38.87635 | 1.37279 | 8 ft | 8 kts | 242° |
| 2026-05-01 14:04 | 38.87619 | 1.37240 | 8 ft | 7 kts | 242° |
| 2026-05-01 14:05 | 38.87592 | 1.37174 | 8 ft | 5 kts | 242° |
| 2026-05-01 14:05 | 38.87575 | 1.37131 | 8 ft | 5 kts | 242° |
| 2026-05-01 14:05 | 38.87552 | 1.37077 | 8 ft | 9 kts | 242° |
| 2026-05-01 14:05 | 38.87518 | 1.36995 | 8 ft | 10 kts | 242° |
| 2026-05-01 14:06 | 38.87488 | 1.36921 | 8 ft | 9 kts | 242° |
| 2026-05-01 14:06 | 38.87461 | 1.36857 | 8 ft | 7 kts | 242° |
| 2026-05-01 14:06 | 38.87430 | 1.36797 | 8 ft | 9 kts | 215° |
| 2026-05-01 14:06 | 38.87380 | 1.36812 | 10 ft | 7 kts | 153° |
| 2026-05-01 14:07 | 38.87332 | 1.36843 | 8 ft | 10 kts | 153° |
| 2026-05-01 14:07 | 38.87280 | 1.36846 | 11 ft | 7 kts | 226° |
| 2026-05-01 14:07 | 38.87249 | 1.36774 | 9 ft | 13 kts | 242° |
| 2026-05-01 14:08 | 38.87141 | 1.36509 | 8 ft | 16 kts | 242° |
| 2026-05-01 14:08 | 38.87092 | 1.36390 | 8 ft | 14 kts | 242° |
| 2026-05-01 14:08 | 38.87038 | 1.36262 | 8 ft | 17 kts | 242° |
| 2026-05-01 14:08 | 38.86985 | 1.36133 | 8 ft | 15 kts | 242° |
| 2026-05-01 14:09 | 38.86939 | 1.36020 | 8 ft | 13 kts | 242° |
| 2026-05-01 14:09 | 38.86898 | 1.35921 | 8 ft | 12 kts | 242° |
| 2026-05-01 14:09 | 38.86861 | 1.35836 | 8 ft | 10 kts | 233° |
| 2026-05-01 14:09 | 38.86804 | 1.35831 | 7 ft | 9 kts | 156° |
| 2026-05-01 14:10 | 38.86745 | 1.35871 | 6 ft | 10 kts | 150° |
| 2026-05-01 14:10 | 38.86717 | 1.35938 | 6 ft | 8 kts | 79° |
| 2026-05-01 14:10 | 38.86733 | 1.35979 | 6 ft | 0 kts | 62° |
| 2026-05-01 14:11 | 38.86806 | 1.36158 | 6 ft | 58 kts | 62° |
| 2026-05-01 14:11 | 38.87571 | 1.38012 | 65 ft | 162 kts | 63° |
| 2026-05-01 14:11 | 38.88084 | 1.39268 | 810 ft | 157 kts | 63° |
| 2026-05-01 14:12 | 38.88427 | 1.40592 | 1415 ft | 165 kts | 79° |
| 2026-05-01 14:12 | 38.88669 | 1.42108 | 1813 ft | 182 kts | 76° |
| 2026-05-01 14:12 | 38.88966 | 1.43788 | 2127 ft | 204 kts | 76° |
| 2026-05-01 14:12 | 38.89298 | 1.45634 | 2683 ft | 215 kts | 76° |
| 2026-05-01 14:13 | 38.89637 | 1.47518 | 3523 ft | 216 kts | 76° |
| 2026-05-01 14:13 | 38.89863 | 1.48766 | 4018 ft | 217 kts | 75° |
| 2026-05-01 14:13 | 38.90320 | 1.51318 | 5007 ft | 222 kts | 76° |
| 2026-05-01 14:13 | 38.90668 | 1.53272 | 5712 ft | 227 kts | 77° |
| 2026-05-01 14:14 | 38.90759 | 1.55321 | 6291 ft | 239 kts | 96° |
| 2026-05-01 14:14 | 38.90561 | 1.57543 | 6640 ft | 262 kts | 97° |
| 2026-05-01 14:14 | 38.90336 | 1.59923 | 7088 ft | 279 kts | 97° |
| 2026-05-01 14:14 | 38.90095 | 1.62418 | 7815 ft | 284 kts | 97° |
| 2026-05-01 14:15 | 38.89838 | 1.64956 | 8584 ft | 289 kts | 100° |
| 2026-05-01 14:15 | 38.89260 | 1.67443 | 9352 ft | 293 kts | 114° |
| 2026-05-01 14:15 | 38.88384 | 1.69840 | 10163 ft | 296 kts | 116° |
| 2026-05-01 14:15 | 38.87493 | 1.72275 | 10638 ft | 311 kts | 115° |
| 2026-05-01 14:16 | 38.86543 | 1.74884 | 10933 ft | 331 kts | 115° |
| 2026-05-01 14:16 | 38.85575 | 1.77559 | 11505 ft | 338 kts | 115° |
| 2026-05-01 14:16 | 38.84576 | 1.80324 | 12153 ft | 344 kts | 115° |
| 2026-05-01 14:16 | 38.83562 | 1.83124 | 12854 ft | 348 kts | 115° |
| 2026-05-01 14:17 | 38.82531 | 1.85966 | 13553 ft | 352 kts | 115° |
| 2026-05-01 14:17 | 38.81625 | 1.88898 | 14187 ft | 357 kts | 105° |
| 2026-05-01 14:17 | 38.81234 | 1.92055 | 14780 ft | 361 kts | 92° |
| 2026-05-01 14:17 | 38.81423 | 1.95265 | 15476 ft | 363 kts | 79° |
| 2026-05-01 14:18 | 38.82178 | 1.98361 | 16105 ft | 366 kts | 67° |
| 2026-05-01 14:18 | 38.83178 | 2.01322 | 16675 ft | 368 kts | 67° |
| 2026-05-01 14:18 | 38.84199 | 2.04346 | 17241 ft | 371 kts | 68° |
| 2026-05-01 14:18 | 38.84893 | 2.06411 | 17611 ft | 373 kts | 67° |
| 2026-05-01 14:19 | 38.86263 | 2.10494 | 18347 ft | 379 kts | 68° |
| 2026-05-01 14:19 | 38.87310 | 2.13617 | 18865 ft | 382 kts | 68° |
| 2026-05-01 14:19 | 38.88367 | 2.16766 | 19346 ft | 386 kts | 68° |
| 2026-05-01 14:19 | 38.89434 | 2.19947 | 19847 ft | 389 kts | 68° |
| 2026-05-01 14:20 | 38.90505 | 2.23154 | 20331 ft | 392 kts | 68° |
| 2026-05-01 14:20 | 38.92661 | 2.29662 | 21298 ft | 399 kts | 68° |
| 2026-05-01 14:20 | 38.93739 | 2.32916 | 21743 ft | 402 kts | 68° |
| 2026-05-01 14:21 | 38.94842 | 2.36245 | 22202 ft | 406 kts | 68° |
| 2026-05-01 14:21 | 38.95952 | 2.39597 | 22654 ft | 409 kts | 68° |
| 2026-05-01 14:21 | 38.97075 | 2.42990 | 23117 ft | 412 kts | 68° |
| 2026-05-01 14:22 | 38.99326 | 2.49775 | 23951 ft | 418 kts | 68° |
| 2026-05-01 14:22 | 39.00467 | 2.53230 | 24327 ft | 421 kts | 68° |
| 2026-05-01 14:22 | 39.01615 | 2.56713 | 24699 ft | 423 kts | 68° |
| 2026-05-01 14:22 | 39.02765 | 2.60208 | 25070 ft | 425 kts | 68° |
| 2026-05-01 14:23 | 39.03529 | 2.62531 | 25311 ft | 427 kts | 68° |
| 2026-05-01 14:23 | 39.04694 | 2.66079 | 25679 ft | 429 kts | 68° |
| 2026-05-01 14:23 | 39.05860 | 2.69633 | 26044 ft | 431 kts | 67° |
| 2026-05-01 14:23 | 39.07017 | 2.73161 | 26419 ft | 433 kts | 67° |
| 2026-05-01 14:24 | 39.08190 | 2.76739 | 26772 ft | 435 kts | 67° |
| 2026-05-01 14:24 | 39.09365 | 2.80325 | 27105 ft | 437 kts | 67° |
| 2026-05-01 14:24 | 39.10550 | 2.83944 | 27430 ft | 439 kts | 67° |
| 2026-05-01 14:24 | 39.11736 | 2.87578 | 27775 ft | 441 kts | 67° |
| 2026-05-01 14:25 | 39.12928 | 2.91250 | 28104 ft | 444 kts | 67° |
| 2026-05-01 14:25 | 39.14122 | 2.94934 | 28447 ft | 446 kts | 67° |
| 2026-05-01 14:25 | 39.15389 | 2.98614 | 28778 ft | 448 kts | 64° |
| 2026-05-01 14:25 | 39.16749 | 3.02183 | 29102 ft | 450 kts | 63° |
| 2026-05-01 14:26 | 39.18209 | 3.05776 | 29434 ft | 452 kts | 62° |
| 2026-05-01 14:26 | 39.21204 | 3.12973 | 30005 ft | 458 kts | 62° |
| 2026-05-01 14:26 | 39.22694 | 3.16615 | 30291 ft | 460 kts | 62° |
| 2026-05-01 14:27 | 39.24166 | 3.20288 | 30521 ft | 462 kts | 63° |
| 2026-05-01 14:27 | 39.25626 | 3.23993 | 30757 ft | 464 kts | 63° |
| 2026-05-01 14:27 | 39.27083 | 3.27723 | 30985 ft | 466 kts | 63° |
| 2026-05-01 14:28 | 39.30015 | 3.35242 | 31451 ft | 470 kts | 63° |
| 2026-05-01 14:28 | 39.31490 | 3.39014 | 31800 ft | 469 kts | 63° |
| 2026-05-01 14:28 | 39.32962 | 3.42768 | 32145 ft | 468 kts | 63° |
| 2026-05-01 14:28 | 39.34433 | 3.46518 | 32469 ft | 467 kts | 63° |
| 2026-05-01 14:29 | 39.35902 | 3.50268 | 32785 ft | 467 kts | 63° |
| 2026-05-01 14:29 | 39.37366 | 3.54014 | 33098 ft | 467 kts | 63° |
| 2026-05-01 14:30 | 39.41739 | 3.65228 | 34013 ft | 466 kts | 63° |
| 2026-05-01 14:30 | 39.43196 | 3.68979 | 34304 ft | 466 kts | 63° |
| 2026-05-01 14:30 | 39.44653 | 3.72735 | 34558 ft | 466 kts | 64° |
| 2026-05-01 14:31 | 39.47533 | 3.80183 | 35112 ft | 465 kts | 64° |
| 2026-05-01 14:31 | 39.48981 | 3.83928 | 35358 ft | 464 kts | 63° |
| 2026-05-01 14:31 | 39.50430 | 3.87680 | 35571 ft | 465 kts | 63° |
| 2026-05-01 14:31 | 39.51878 | 3.91437 | 35826 ft | 464 kts | 63° |
| 2026-05-01 14:32 | 39.53315 | 3.95172 | 36111 ft | 463 kts | 63° |
| 2026-05-01 14:32 | 39.56157 | 4.02561 | 36210 ft | 458 kts | 64° |
| 2026-05-01 14:33 | 39.59225 | 4.09765 | 36214 ft | 456 kts | 52° |
| 2026-05-01 14:33 | 39.61339 | 4.12824 | 36214 ft | 454 kts | 41° |
| 2026-05-01 14:33 | 39.63841 | 4.15317 | 36214 ft | 452 kts | 30° |
| 2026-05-01 14:33 | 39.66636 | 4.17162 | 36217 ft | 450 kts | 19° |
| 2026-05-01 14:34 | 39.69629 | 4.18321 | 36219 ft | 447 kts | 8° |
| 2026-05-01 14:34 | 39.75781 | 4.19548 | 36223 ft | 447 kts | 6° |
| 2026-05-01 14:35 | 39.81932 | 4.20748 | 36227 ft | 446 kts | 6° |
| 2026-05-01 14:35 | 39.88044 | 4.21963 | 36225 ft | 446 kts | 7° |
| 2026-05-01 14:36 | 39.94168 | 4.23368 | 36223 ft | 446 kts | 8° |
| 2026-05-01 14:36 | 40.00283 | 4.24867 | 36236 ft | 446 kts | 8° |
| 2026-05-01 14:37 | 40.06356 | 4.26327 | 36237 ft | 445 kts | 8° |
| 2026-05-01 14:37 | 40.12464 | 4.27756 | 36235 ft | 445 kts | 8° |
| 2026-05-01 14:38 | 40.18528 | 4.29176 | 36237 ft | 445 kts | 8° |
| 2026-05-01 14:38 | 40.24625 | 4.30623 | 36242 ft | 445 kts | 8° |
| 2026-05-01 14:39 | 40.30725 | 4.32064 | 36241 ft | 445 kts | 8° |
| 2026-05-01 14:39 | 40.36829 | 4.33515 | 36239 ft | 445 kts | 8° |
| 2026-05-01 14:40 | 40.42885 | 4.34954 | 36242 ft | 444 kts | 8° |
| 2026-05-01 14:40 | 40.48981 | 4.36399 | 36243 ft | 444 kts | 8° |
| 2026-05-01 14:41 | 40.55066 | 4.37852 | 36241 ft | 444 kts | 8° |
| 2026-05-01 14:41 | 40.61109 | 4.39300 | 36244 ft | 443 kts | 8° |
| 2026-05-01 14:42 | 40.67192 | 4.40749 | 36242 ft | 443 kts | 8° |
| 2026-05-01 14:42 | 40.73276 | 4.42216 | 36243 ft | 443 kts | 8° |
| 2026-05-01 14:43 | 40.79298 | 4.43666 | 36244 ft | 443 kts | 8° |
| 2026-05-01 14:43 | 40.85365 | 4.45131 | 36246 ft | 443 kts | 8° |
| 2026-05-01 14:44 | 40.91437 | 4.46589 | 36237 ft | 443 kts | 8° |
| 2026-05-01 14:44 | 41.00558 | 4.48794 | 36238 ft | 443 kts | 8° |
| 2026-05-01 14:45 | 41.09633 | 4.50997 | 36246 ft | 444 kts | 8° |
| 2026-05-01 14:46 | 41.15715 | 4.52480 | 36249 ft | 443 kts | 8° |
| 2026-05-01 14:46 | 41.24796 | 4.54707 | 36246 ft | 443 kts | 8° |
| 2026-05-01 14:47 | 41.30873 | 4.56194 | 36253 ft | 443 kts | 7° |
| 2026-05-01 14:48 | 41.39941 | 4.58398 | 36256 ft | 443 kts | 7° |
| 2026-05-01 14:48 | 41.49036 | 4.60636 | 36271 ft | 442 kts | 7° |
| 2026-05-01 14:49 | 41.61134 | 4.63636 | 36273 ft | 442 kts | 7° |
| 2026-05-01 14:50 | 41.73127 | 4.66999 | 36274 ft | 445 kts | 18° |
| 2026-05-01 14:51 | 41.81294 | 4.73041 | 36278 ft | 448 kts | 28° |
| 2026-05-01 14:52 | 41.89308 | 4.79492 | 36286 ft | 448 kts | 28° |
| 2026-05-01 14:53 | 41.97303 | 4.85942 | 36285 ft | 447 kts | 28° |
| 2026-05-01 14:53 | 42.02650 | 4.90267 | 36290 ft | 447 kts | 28° |
| 2026-05-01 14:54 | 42.07954 | 4.94560 | 36288 ft | 447 kts | 28° |
| 2026-05-01 14:54 | 42.13277 | 4.98880 | 36297 ft | 446 kts | 28° |
| 2026-05-01 14:55 | 42.18596 | 5.03203 | 36306 ft | 445 kts | 28° |
| 2026-05-01 14:55 | 42.23895 | 5.07539 | 36298 ft | 444 kts | 29° |
| 2026-05-01 14:56 | 42.29145 | 5.11846 | 36305 ft | 444 kts | 28° |
| 2026-05-01 14:56 | 42.34441 | 5.16178 | 36306 ft | 443 kts | 28° |
| 2026-05-01 14:57 | 42.39702 | 5.20475 | 36304 ft | 443 kts | 28° |
| 2026-05-01 14:57 | 42.47610 | 5.26978 | 36300 ft | 443 kts | 29° |
| 2026-05-01 14:58 | 42.52848 | 5.31293 | 36310 ft | 443 kts | 29° |
| 2026-05-01 14:58 | 42.58116 | 5.35646 | 36302 ft | 442 kts | 29° |
| 2026-05-01 14:59 | 42.63343 | 5.39973 | 36307 ft | 441 kts | 29° |
| 2026-05-01 14:59 | 42.68590 | 5.44323 | 36304 ft | 441 kts | 29° |
| 2026-05-01 15:00 | 42.76446 | 5.50849 | 36305 ft | 440 kts | 29° |
| 2026-05-01 15:01 | 42.81681 | 5.55208 | 36307 ft | 440 kts | 29° |
| 2026-05-01 15:01 | 42.86901 | 5.59576 | 36307 ft | 441 kts | 29° |
| 2026-05-01 15:02 | 42.92122 | 5.63954 | 36294 ft | 441 kts | 29° |
| 2026-05-01 15:02 | 42.97322 | 5.68307 | 36293 ft | 440 kts | 29° |
| 2026-05-01 15:03 | 43.02560 | 5.72709 | 36310 ft | 440 kts | 28° |
| 2026-05-01 15:03 | 43.07767 | 5.77088 | 36326 ft | 438 kts | 29° |
| 2026-05-01 15:04 | 43.12928 | 5.81446 | 36324 ft | 437 kts | 28° |
| 2026-05-01 15:04 | 43.18103 | 5.85827 | 36321 ft | 435 kts | 28° |
| 2026-05-01 15:05 | 43.23232 | 5.90161 | 36309 ft | 435 kts | 28° |
| 2026-05-01 15:05 | 43.28389 | 5.94537 | 36305 ft | 435 kts | 29° |
| 2026-05-01 15:06 | 43.33516 | 5.98901 | 36319 ft | 434 kts | 28° |
| 2026-05-01 15:06 | 43.38791 | 6.02871 | 36305 ft | 429 kts | 17° |
| 2026-05-01 15:07 | 43.44524 | 6.04555 | 36299 ft | 422 kts | 1° |
| 2026-05-01 15:07 | 43.50405 | 6.05123 | 36299 ft | 423 kts | 2° |
| 2026-05-01 15:08 | 43.55290 | 6.05624 | 36295 ft | 423 kts | 2° |
| 2026-05-01 15:08 | 43.62122 | 6.06332 | 36290 ft | 423 kts | 1° |
| 2026-05-01 15:09 | 43.67042 | 6.06825 | 36295 ft | 423 kts | 1° |
| 2026-05-01 15:09 | 43.72893 | 6.07403 | 36290 ft | 424 kts | 2° |
| 2026-05-01 15:10 | 43.78686 | 6.09007 | 36288 ft | 428 kts | 18° |
| 2026-05-01 15:10 | 43.86784 | 6.14384 | 36298 ft | 430 kts | 23° |
| 2026-05-01 15:11 | 43.94819 | 6.19855 | 36309 ft | 430 kts | 23° |
| 2026-05-01 15:12 | 44.00203 | 6.23544 | 36304 ft | 430 kts | 24° |
| 2026-05-01 15:12 | 44.08236 | 6.29078 | 36302 ft | 429 kts | 23° |
| 2026-05-01 15:14 | 44.21636 | 6.38295 | 36292 ft | 430 kts | 23° |
| 2026-05-01 15:14 | 44.29678 | 6.43860 | 36290 ft | 430 kts | 23° |
| 2026-05-01 15:15 | 44.40385 | 6.51264 | 36301 ft | 429 kts | 23° |
| 2026-05-01 15:16 | 44.51017 | 6.58682 | 36309 ft | 428 kts | 24° |
| 2026-05-01 15:18 | 44.64327 | 6.68000 | 36301 ft | 427 kts | 24° |
| 2026-05-01 15:19 | 44.74937 | 6.75463 | 36314 ft | 427 kts | 24° |
| 2026-05-01 15:19 | 44.80437 | 6.78308 | 36309 ft | 421 kts | 8° |
| 2026-05-01 15:19 | 44.83339 | 6.78767 | 36307 ft | 418 kts | 359° |
| 2026-05-01 15:20 | 44.92043 | 6.78245 | 36348 ft | 417 kts | 355° |
| 2026-05-01 15:21 | 44.97807 | 6.77858 | 36341 ft | 417 kts | 355° |
| 2026-05-01 15:21 | 45.03619 | 6.77484 | 36328 ft | 417 kts | 355° |
| 2026-05-01 15:22 | 45.12293 | 6.76897 | 36329 ft | 418 kts | 355° |
| 2026-05-01 15:22 | 45.18102 | 6.76502 | 36305 ft | 417 kts | 355° |
| 2026-05-01 15:23 | 45.23919 | 6.76117 | 36300 ft | 417 kts | 355° |
| 2026-05-01 15:23 | 45.29717 | 6.75737 | 36289 ft | 417 kts | 355° |
| 2026-05-01 15:24 | 45.35491 | 6.75359 | 36290 ft | 418 kts | 355° |
| 2026-05-01 15:24 | 45.41326 | 6.74966 | 36296 ft | 419 kts | 355° |
| 2026-05-01 15:25 | 45.47113 | 6.74580 | 36345 ft | 418 kts | 355° |
| 2026-05-01 15:25 | 45.52949 | 6.74187 | 36332 ft | 419 kts | 355° |
| 2026-05-01 15:26 | 45.58739 | 6.73787 | 36321 ft | 418 kts | 355° |
| 2026-05-01 15:26 | 45.64578 | 6.73383 | 36285 ft | 420 kts | 355° |
| 2026-05-01 15:27 | 45.70388 | 6.72985 | 36276 ft | 420 kts | 355° |
| 2026-05-01 15:28 | 45.79180 | 6.72378 | 36270 ft | 421 kts | 355° |
| 2026-05-01 15:28 | 45.85030 | 6.71964 | 36258 ft | 422 kts | 355° |
| 2026-05-01 15:29 | 45.93863 | 6.71378 | 36264 ft | 423 kts | 355° |
| 2026-05-01 15:30 | 46.05645 | 6.70582 | 36264 ft | 424 kts | 355° |
| 2026-05-01 15:31 | 46.17168 | 6.67916 | 36255 ft | 420 kts | 339° |
| 2026-05-01 15:31 | 46.22726 | 6.65209 | 36240 ft | 421 kts | 340° |
| 2026-05-01 15:32 | 46.33864 | 6.59784 | 36239 ft | 424 kts | 340° |
| 2026-05-01 15:34 | 46.50654 | 6.51564 | 36231 ft | 427 kts | 340° |